sensor_id;sensor_type;location;lat;lon;timestamp;temperature;humidity
17092;DHT22;8661;45.700;4.880;2023-09-19T00:00:19;19.70;99.90
17092;DHT22;8661;45.700;4.880;2023-09-19T00:02:51;19.70;99.90
17092;DHT22;8661;45.700;4.880;2023-09-19T00:05:18;19.70;99.90
17092;DHT22;8661;45.700;4.880;2023-09-19T00:07:49;19.70;99.90
17092;DHT22;8661;45.700;4.880;2023-09-19T00:10:20;19.80;99.90
17092;DHT22;8661;45.700;4.880;2023-09-19T00:12:51;19.70;99.90
17092;DHT22;8661;45.700;4.880;2023-09-19T00:15:18;19.80;99.90
17092;DHT22;8661;45.700;4.880;2023-09-19T00:17:45;19.80;99.90
17092;DHT22;8661;45.700;4.880;2023-09-19T00:20:13;19.80;99.90
17092;DHT22;8661;45.700;4.880;2023-09-19T00:22:43;19.80;99.90
17092;DHT22;8661;45.700;4.880;2023-09-19T00:25:10;19.70;99.90
17092;DHT22;8661;45.700;4.880;2023-09-19T00:27:38;19.70;99.90
17092;DHT22;8661;45.700;4.880;2023-09-19T00:30:09;19.70;99.90
17092;DHT22;8661;45.700;4.880;2023-09-19T00:32:41;19.70;99.90
17092;DHT22;8661;45.700;4.880;2023-09-19T00:35:08;19.70;99.90
17092;DHT22;8661;45.700;4.880;2023-09-19T00:37:36;19.70;99.90
17092;DHT22;8661;45.700;4.880;2023-09-19T00:40:06;19.70;99.90
17092;DHT22;8661;45.700;4.880;2023-09-19T00:42:36;19.70;99.90
17092;DHT22;8661;45.700;4.880;2023-09-19T00:45:04;19.70;99.90
17092;DHT22;8661;45.700;4.880;2023-09-19T00:47:33;19.70;99.90
17092;DHT22;8661;45.700;4.880;2023-09-19T00:50:00;19.70;99.90
17092;DHT22;8661;45.700;4.880;2023-09-19T00:52:28;19.70;99.90
17092;DHT22;8661;45.700;4.880;2023-09-19T00:54:56;19.70;99.90
17092;DHT22;8661;45.700;4.880;2023-09-19T00:57:23;19.70;99.90
17092;DHT22;8661;45.700;4.880;2023-09-19T00:59:54;19.70;99.90
17092;DHT22;8661;45.700;4.880;2023-09-19T01:02:21;19.60;99.90
17092;DHT22;8661;45.700;4.880;2023-09-19T01:04:50;19.70;99.90
17092;DHT22;8661;45.700;4.880;2023-09-19T01:07:17;19.60;99.90
17092;DHT22;8661;45.700;4.880;2023-09-19T01:09:44;19.70;99.90
17092;DHT22;8661;45.700;4.880;2023-09-19T01:12:16;19.70;99.90
17092;DHT22;8661;45.700;4.880;2023-09-19T01:14:52;19.70;99.90
17092;DHT22;8661;45.700;4.880;2023-09-19T01:17:27;19.70;99.90
17092;DHT22;8661;45.700;4.880;2023-09-19T01:20:24;19.60;99.90
17092;DHT22;8661;45.700;4.880;2023-09-19T01:23:03;19.60;99.90
17092;DHT22;8661;45.700;4.880;2023-09-19T01:25:50;19.70;99.90
17092;DHT22;8661;45.700;4.880;2023-09-19T01:28:30;19.70;99.90
17092;DHT22;8661;45.700;4.880;2023-09-19T01:31:04;19.70;99.90
17092;DHT22;8661;45.700;4.880;2023-09-19T01:33:56;19.70;99.90
17092;DHT22;8661;45.700;4.880;2023-09-19T01:36:25;19.60;99.90
17092;DHT22;8661;45.700;4.880;2023-09-19T01:38:53;19.60;99.90
17092;DHT22;8661;45.700;4.880;2023-09-19T01:41:30;19.70;99.90
17092;DHT22;8661;45.700;4.880;2023-09-19T01:44:01;19.60;99.90
17092;DHT22;8661;45.700;4.880;2023-09-19T01:46:35;19.60;99.90
17092;DHT22;8661;45.700;4.880;2023-09-19T01:49:15;19.60;99.90
17092;DHT22;8661;45.700;4.880;2023-09-19T01:51:52;19.60;99.90
17092;DHT22;8661;45.700;4.880;2023-09-19T01:54:26;19.50;99.90
17092;DHT22;8661;45.700;4.880;2023-09-19T01:57:01;19.40;99.90
17092;DHT22;8661;45.700;4.880;2023-09-19T01:59:35;19.30;99.90
17092;DHT22;8661;45.700;4.880;2023-09-19T02:02:07;19.20;99.90
17092;DHT22;8661;45.700;4.880;2023-09-19T02:04:35;19.00;99.90
17092;DHT22;8661;45.700;4.880;2023-09-19T02:07:02;18.90;99.90
17092;DHT22;8661;45.700;4.880;2023-09-19T02:09:31;18.90;99.90
17092;DHT22;8661;45.700;4.880;2023-09-19T02:11:59;18.80;99.90
17092;DHT22;8661;45.700;4.880;2023-09-19T02:14:26;18.80;99.90
17092;DHT22;8661;45.700;4.880;2023-09-19T02:16:55;18.70;99.90
17092;DHT22;8661;45.700;4.880;2023-09-19T02:19:23;18.70;99.90
17092;DHT22;8661;45.700;4.880;2023-09-19T02:21:50;18.60;99.90
17092;DHT22;8661;45.700;4.880;2023-09-19T02:24:18;18.60;99.90
17092;DHT22;8661;45.700;4.880;2023-09-19T02:26:45;18.60;99.90
17092;DHT22;8661;45.700;4.880;2023-09-19T02:29:12;18.60;99.90
17092;DHT22;8661;45.700;4.880;2023-09-19T02:31:39;18.60;99.90
17092;DHT22;8661;45.700;4.880;2023-09-19T02:34:08;18.60;99.90
17092;DHT22;8661;45.700;4.880;2023-09-19T02:36:36;18.60;99.90
17092;DHT22;8661;45.700;4.880;2023-09-19T02:39:03;18.60;99.90
17092;DHT22;8661;45.700;4.880;2023-09-19T02:41:31;18.60;99.90
17092;DHT22;8661;45.700;4.880;2023-09-19T02:43:58;18.50;99.90
17092;DHT22;8661;45.700;4.880;2023-09-19T02:46:27;18.50;99.90
17092;DHT22;8661;45.700;4.880;2023-09-19T02:48:54;18.50;99.90
17092;DHT22;8661;45.700;4.880;2023-09-19T02:51:21;18.50;99.90
17092;DHT22;8661;45.700;4.880;2023-09-19T02:53:49;18.50;99.90
17092;DHT22;8661;45.700;4.880;2023-09-19T02:56:18;18.50;99.90
17092;DHT22;8661;45.700;4.880;2023-09-19T02:58:45;18.50;99.90
17092;DHT22;8661;45.700;4.880;2023-09-19T03:01:14;18.50;99.90
17092;DHT22;8661;45.700;4.880;2023-09-19T03:03:41;18.50;99.90
17092;DHT22;8661;45.700;4.880;2023-09-19T03:06:08;18.50;99.90
17092;DHT22;8661;45.700;4.880;2023-09-19T03:08:35;18.50;99.90
17092;DHT22;8661;45.700;4.880;2023-09-19T03:11:05;18.50;99.90
17092;DHT22;8661;45.700;4.880;2023-09-19T03:13:33;18.40;99.90
17092;DHT22;8661;45.700;4.880;2023-09-19T03:16:01;18.40;99.90
17092;DHT22;8661;45.700;4.880;2023-09-19T03:18:31;18.40;99.90
17092;DHT22;8661;45.700;4.880;2023-09-19T03:20:58;18.40;99.90
17092;DHT22;8661;45.700;4.880;2023-09-19T03:23:27;18.40;99.90
17092;DHT22;8661;45.700;4.880;2023-09-19T03:25:54;18.40;99.90
17092;DHT22;8661;45.700;4.880;2023-09-19T03:28:23;18.40;99.90
17092;DHT22;8661;45.700;4.880;2023-09-19T03:30:58;18.30;99.90
17092;DHT22;8661;45.700;4.880;2023-09-19T03:33:26;18.30;99.90
17092;DHT22;8661;45.700;4.880;2023-09-19T03:35:53;18.30;99.90
17092;DHT22;8661;45.700;4.880;2023-09-19T03:38:20;18.30;99.90
17092;DHT22;8661;45.700;4.880;2023-09-19T03:40:47;18.30;99.90
17092;DHT22;8661;45.700;4.880;2023-09-19T03:43:14;18.30;99.90
17092;DHT22;8661;45.700;4.880;2023-09-19T03:45:43;18.30;99.90
17092;DHT22;8661;45.700;4.880;2023-09-19T03:48:10;18.20;99.90
17092;DHT22;8661;45.700;4.880;2023-09-19T03:50:37;18.30;99.90
17092;DHT22;8661;45.700;4.880;2023-09-19T03:53:04;18.20;99.90
17092;DHT22;8661;45.700;4.880;2023-09-19T03:55:32;18.20;99.90
17092;DHT22;8661;45.700;4.880;2023-09-19T03:58:01;18.20;99.90
17092;DHT22;8661;45.700;4.880;2023-09-19T04:00:28;18.30;99.90
17092;DHT22;8661;45.700;4.880;2023-09-19T04:02:56;18.20;99.90
17092;DHT22;8661;45.700;4.880;2023-09-19T04:05:23;18.30;99.90
17092;DHT22;8661;45.700;4.880;2023-09-19T04:07:51;18.30;99.90
17092;DHT22;8661;45.700;4.880;2023-09-19T04:10:18;18.30;99.90
17092;DHT22;8661;45.700;4.880;2023-09-19T04:12:51;18.30;99.90
17092;DHT22;8661;45.700;4.880;2023-09-19T04:15:19;18.30;99.90
17092;DHT22;8661;45.700;4.880;2023-09-19T04:17:47;18.30;99.90
17092;DHT22;8661;45.700;4.880;2023-09-19T04:20:16;18.20;99.90
17092;DHT22;8661;45.700;4.880;2023-09-19T04:22:44;18.20;99.90
17092;DHT22;8661;45.700;4.880;2023-09-19T04:25:11;18.30;99.90
17092;DHT22;8661;45.700;4.880;2023-09-19T04:27:38;18.30;99.90
17092;DHT22;8661;45.700;4.880;2023-09-19T04:30:06;18.20;99.90
17092;DHT22;8661;45.700;4.880;2023-09-19T04:32:36;18.30;99.90
17092;DHT22;8661;45.700;4.880;2023-09-19T04:35:05;18.30;99.90
17092;DHT22;8661;45.700;4.880;2023-09-19T04:37:38;18.20;99.90
17092;DHT22;8661;45.700;4.880;2023-09-19T04:40:07;18.20;99.90
17092;DHT22;8661;45.700;4.880;2023-09-19T04:42:39;18.10;99.90
17092;DHT22;8661;45.700;4.880;2023-09-19T04:45:07;18.10;99.90
17092;DHT22;8661;45.700;4.880;2023-09-19T04:47:35;18.10;99.90
17092;DHT22;8661;45.700;4.880;2023-09-19T04:50:08;18.00;99.90
17092;DHT22;8661;45.700;4.880;2023-09-19T04:52:41;18.00;99.90
17092;DHT22;8661;45.700;4.880;2023-09-19T04:55:11;18.00;99.90
17092;DHT22;8661;45.700;4.880;2023-09-19T04:57:45;17.90;99.90
17092;DHT22;8661;45.700;4.880;2023-09-19T05:00:13;18.00;99.90
17092;DHT22;8661;45.700;4.880;2023-09-19T05:02:40;18.00;99.90
17092;DHT22;8661;45.700;4.880;2023-09-19T05:05:08;18.00;99.90
17092;DHT22;8661;45.700;4.880;2023-09-19T05:07:35;18.00;99.90
17092;DHT22;8661;45.700;4.880;2023-09-19T05:10:04;18.00;99.90
17092;DHT22;8661;45.700;4.880;2023-09-19T05:12:33;18.00;99.90
17092;DHT22;8661;45.700;4.880;2023-09-19T05:15:01;18.10;99.90
17092;DHT22;8661;45.700;4.880;2023-09-19T05:17:28;18.00;99.90
17092;DHT22;8661;45.700;4.880;2023-09-19T05:19:55;18.00;99.90
17092;DHT22;8661;45.700;4.880;2023-09-19T05:22:22;18.00;99.90
17092;DHT22;8661;45.700;4.880;2023-09-19T05:24:50;18.00;99.90
17092;DHT22;8661;45.700;4.880;2023-09-19T05:27:19;18.00;99.90
17092;DHT22;8661;45.700;4.880;2023-09-19T05:29:47;18.00;99.90
17092;DHT22;8661;45.700;4.880;2023-09-19T05:32:16;18.00;99.90
17092;DHT22;8661;45.700;4.880;2023-09-19T05:34:43;18.00;99.90
17092;DHT22;8661;45.700;4.880;2023-09-19T05:37:10;18.00;99.90
17092;DHT22;8661;45.700;4.880;2023-09-19T05:39:37;18.00;99.90
17092;DHT22;8661;45.700;4.880;2023-09-19T05:42:04;18.00;99.90
17092;DHT22;8661;45.700;4.880;2023-09-19T05:44:32;18.00;99.90
17092;DHT22;8661;45.700;4.880;2023-09-19T05:46:59;18.00;99.90
17092;DHT22;8661;45.700;4.880;2023-09-19T05:49:26;18.00;99.90
17092;DHT22;8661;45.700;4.880;2023-09-19T05:51:54;18.10;99.90
17092;DHT22;8661;45.700;4.880;2023-09-19T05:54:22;18.10;99.90
17092;DHT22;8661;45.700;4.880;2023-09-19T05:56:49;18.10;99.90
17092;DHT22;8661;45.700;4.880;2023-09-19T05:59:18;18.10;99.90
17092;DHT22;8661;45.700;4.880;2023-09-19T06:01:47;18.10;99.90
17092;DHT22;8661;45.700;4.880;2023-09-19T06:04:14;18.20;99.90
17092;DHT22;8661;45.700;4.880;2023-09-19T06:06:40;18.20;99.90
17092;DHT22;8661;45.700;4.880;2023-09-19T06:09:08;18.30;99.90
17092;DHT22;8661;45.700;4.880;2023-09-19T06:11:35;18.90;99.90
17092;DHT22;8661;45.700;4.880;2023-09-19T06:14:03;20.00;99.90
17092;DHT22;8661;45.700;4.880;2023-09-19T06:16:30;20.50;99.90
17092;DHT22;8661;45.700;4.880;2023-09-19T06:18:59;20.80;99.90
17092;DHT22;8661;45.700;4.880;2023-09-19T06:21:27;21.80;99.90
17092;DHT22;8661;45.700;4.880;2023-09-19T06:23:54;22.30;99.90
17092;DHT22;8661;45.700;4.880;2023-09-19T06:26:20;21.80;99.90
17092;DHT22;8661;45.700;4.880;2023-09-19T06:28:51;21.20;99.90
17092;DHT22;8661;45.700;4.880;2023-09-19T06:31:18;20.80;99.90
17092;DHT22;8661;45.700;4.880;2023-09-19T06:33:48;20.60;99.90
17092;DHT22;8661;45.700;4.880;2023-09-19T06:36:16;20.60;99.90
17092;DHT22;8661;45.700;4.880;2023-09-19T06:38:44;20.40;99.90
17092;DHT22;8661;45.700;4.880;2023-09-19T06:41:12;20.30;99.90
17092;DHT22;8661;45.700;4.880;2023-09-19T06:43:41;20.50;99.90
17092;DHT22;8661;45.700;4.880;2023-09-19T06:46:08;20.80;99.90
17092;DHT22;8661;45.700;4.880;2023-09-19T06:48:35;21.00;99.90
17092;DHT22;8661;45.700;4.880;2023-09-19T06:51:02;21.30;99.90
17092;DHT22;8661;45.700;4.880;2023-09-19T06:53:31;22.10;99.90
17092;DHT22;8661;45.700;4.880;2023-09-19T06:56:00;23.10;99.90
17092;DHT22;8661;45.700;4.880;2023-09-19T06:58:28;23.90;99.90
17092;DHT22;8661;45.700;4.880;2023-09-19T07:00:55;24.70;99.90
17092;DHT22;8661;45.700;4.880;2023-09-19T07:03:22;25.10;99.90
17092;DHT22;8661;45.700;4.880;2023-09-19T07:05:51;25.30;99.90
17092;DHT22;8661;45.700;4.880;2023-09-19T07:08:21;25.30;99.90
17092;DHT22;8661;45.700;4.880;2023-09-19T07:10:49;25.40;99.90
17092;DHT22;8661;45.700;4.880;2023-09-19T07:13:18;25.60;99.90
17092;DHT22;8661;45.700;4.880;2023-09-19T07:15:45;25.40;99.90
17092;DHT22;8661;45.700;4.880;2023-09-19T07:18:13;25.30;99.90
17092;DHT22;8661;45.700;4.880;2023-09-19T07:20:43;25.40;99.90
17092;DHT22;8661;45.700;4.880;2023-09-19T07:23:14;25.30;99.90
17092;DHT22;8661;45.700;4.880;2023-09-19T07:25:41;25.40;99.90
17092;DHT22;8661;45.700;4.880;2023-09-19T07:28:10;25.40;99.90
17092;DHT22;8661;45.700;4.880;2023-09-19T07:30:37;25.60;99.90
17092;DHT22;8661;45.700;4.880;2023-09-19T07:33:04;25.50;99.90
17092;DHT22;8661;45.700;4.880;2023-09-19T07:35:32;25.50;99.90
17092;DHT22;8661;45.700;4.880;2023-09-19T07:37:59;25.60;99.90
17092;DHT22;8661;45.700;4.880;2023-09-19T07:40:27;25.60;99.90
17092;DHT22;8661;45.700;4.880;2023-09-19T07:42:54;25.70;99.90
17092;DHT22;8661;45.700;4.880;2023-09-19T07:45:22;25.90;99.90
17092;DHT22;8661;45.700;4.880;2023-09-19T07:47:51;26.10;99.90
17092;DHT22;8661;45.700;4.880;2023-09-19T07:50:18;26.30;99.90
17092;DHT22;8661;45.700;4.880;2023-09-19T07:52:46;26.70;99.90
17092;DHT22;8661;45.700;4.880;2023-09-19T07:55:13;26.80;99.90
17092;DHT22;8661;45.700;4.880;2023-09-19T07:57:42;26.90;99.90
17092;DHT22;8661;45.700;4.880;2023-09-19T08:00:10;26.90;99.90
17092;DHT22;8661;45.700;4.880;2023-09-19T08:02:39;26.70;99.90
17092;DHT22;8661;45.700;4.880;2023-09-19T08:05:08;26.10;99.90
17092;DHT22;8661;45.700;4.880;2023-09-19T08:07:36;25.60;99.90
17092;DHT22;8661;45.700;4.880;2023-09-19T08:10:04;25.10;99.90
17092;DHT22;8661;45.700;4.880;2023-09-19T08:12:33;24.80;99.90
17092;DHT22;8661;45.700;4.880;2023-09-19T08:15:01;24.40;99.90
17092;DHT22;8661;45.700;4.880;2023-09-19T08:17:28;23.90;99.90
17092;DHT22;8661;45.700;4.880;2023-09-19T08:19:56;23.50;99.90
17092;DHT22;8661;45.700;4.880;2023-09-19T08:22:23;23.20;99.90
17092;DHT22;8661;45.700;4.880;2023-09-19T08:24:50;23.00;99.90
17092;DHT22;8661;45.700;4.880;2023-09-19T08:27:17;22.70;99.90
17092;DHT22;8661;45.700;4.880;2023-09-19T08:29:45;22.60;99.90
17092;DHT22;8661;45.700;4.880;2023-09-19T08:32:12;22.50;99.90
17092;DHT22;8661;45.700;4.880;2023-09-19T08:34:40;22.60;99.90
17092;DHT22;8661;45.700;4.880;2023-09-19T08:37:08;23.30;99.90
17092;DHT22;8661;45.700;4.880;2023-09-19T08:39:36;24.10;99.90
17092;DHT22;8661;45.700;4.880;2023-09-19T08:42:03;24.80;99.90
17092;DHT22;8661;45.700;4.880;2023-09-19T08:44:30;25.40;99.90
17092;DHT22;8661;45.700;4.880;2023-09-19T08:47:09;26.00;99.90
17092;DHT22;8661;45.700;4.880;2023-09-19T08:49:46;26.50;99.50
17092;DHT22;8661;45.700;4.880;2023-09-19T08:52:22;27.00;98.50
17092;DHT22;8661;45.700;4.880;2023-09-19T08:54:52;27.40;96.90
17092;DHT22;8661;45.700;4.880;2023-09-19T08:57:20;27.70;95.60
17092;DHT22;8661;45.700;4.880;2023-09-19T08:59:48;28.00;94.80
17092;DHT22;8661;45.700;4.880;2023-09-19T09:02:16;27.90;93.90
17092;DHT22;8661;45.700;4.880;2023-09-19T09:04:45;28.10;94.00
17092;DHT22;8661;45.700;4.880;2023-09-19T09:07:13;28.40;93.60
17092;DHT22;8661;45.700;4.880;2023-09-19T09:09:42;28.90;92.50
17092;DHT22;8661;45.700;4.880;2023-09-19T09:12:11;29.10;91.30
17092;DHT22;8661;45.700;4.880;2023-09-19T09:14:39;29.60;91.20
17092;DHT22;8661;45.700;4.880;2023-09-19T09:17:07;30.00;90.30
17092;DHT22;8661;45.700;4.880;2023-09-19T09:19:34;30.40;88.80
17092;DHT22;8661;45.700;4.880;2023-09-19T09:22:08;30.60;85.80
17092;DHT22;8661;45.700;4.880;2023-09-19T09:24:35;30.60;82.40
17092;DHT22;8661;45.700;4.880;2023-09-19T09:27:06;31.00;84.40
17092;DHT22;8661;45.700;4.880;2023-09-19T09:29:41;31.20;83.70
17092;DHT22;8661;45.700;4.880;2023-09-19T09:32:19;31.10;82.80
17092;DHT22;8661;45.700;4.880;2023-09-19T09:34:47;30.60;81.80
17092;DHT22;8661;45.700;4.880;2023-09-19T09:37:15;30.60;84.20
17092;DHT22;8661;45.700;4.880;2023-09-19T09:39:49;30.70;82.30
17092;DHT22;8661;45.700;4.880;2023-09-19T09:42:31;30.90;81.00
17092;DHT22;8661;45.700;4.880;2023-09-19T09:45:13;31.40;80.00
17092;DHT22;8661;45.700;4.880;2023-09-19T09:47:45;31.70;77.90
17092;DHT22;8661;45.700;4.880;2023-09-19T09:50:30;31.60;76.70
17092;DHT22;8661;45.700;4.880;2023-09-19T09:53:19;31.40;78.20
17092;DHT22;8661;45.700;4.880;2023-09-19T09:56:03;31.40;79.10
17092;DHT22;8661;45.700;4.880;2023-09-19T09:58:33;31.40;75.90
17092;DHT22;8661;45.700;4.880;2023-09-19T10:01:01;31.60;77.30
17092;DHT22;8661;45.700;4.880;2023-09-19T10:03:35;31.80;77.10
17092;DHT22;8661;45.700;4.880;2023-09-19T10:06:09;32.10;75.50
17092;DHT22;8661;45.700;4.880;2023-09-19T10:09:04;32.00;74.10
17092;DHT22;8661;45.700;4.880;2023-09-19T10:11:41;31.40;71.20
17092;DHT22;8661;45.700;4.880;2023-09-19T10:14:12;30.90;75.50
17092;DHT22;8661;45.700;4.880;2023-09-19T10:16:46;30.60;76.80
17092;DHT22;8661;45.700;4.880;2023-09-19T10:19:16;30.30;77.60
17092;DHT22;8661;45.700;4.880;2023-09-19T10:21:45;30.10;78.10
17092;DHT22;8661;45.700;4.880;2023-09-19T10:24:14;29.80;79.00
17092;DHT22;8661;45.700;4.880;2023-09-19T10:26:42;29.60;80.20
17092;DHT22;8661;45.700;4.880;2023-09-19T10:29:13;29.40;80.50
17092;DHT22;8661;45.700;4.880;2023-09-19T10:31:42;29.30;79.70
17092;DHT22;8661;45.700;4.880;2023-09-19T10:34:14;29.00;81.30
17092;DHT22;8661;45.700;4.880;2023-09-19T10:36:45;29.00;81.70
17092;DHT22;8661;45.700;4.880;2023-09-19T10:39:15;29.20;80.70
17092;DHT22;8661;45.700;4.880;2023-09-19T10:41:50;30.00;79.80
17092;DHT22;8661;45.700;4.880;2023-09-19T10:44:24;31.60;77.80
17092;DHT22;8661;45.700;4.880;2023-09-19T10:46:51;33.00;74.80
17092;DHT22;8661;45.700;4.880;2023-09-19T10:49:19;33.60;72.20
17092;DHT22;8661;45.700;4.880;2023-09-19T10:51:48;33.80;70.40
17092;DHT22;8661;45.700;4.880;2023-09-19T10:54:18;33.70;70.60
17092;DHT22;8661;45.700;4.880;2023-09-19T10:56:49;33.70;70.40
17092;DHT22;8661;45.700;4.880;2023-09-19T10:59:18;33.50;68.80
17092;DHT22;8661;45.700;4.880;2023-09-19T11:01:46;33.60;68.50
17092;DHT22;8661;45.700;4.880;2023-09-19T11:04:24;34.20;68.30
17092;DHT22;8661;45.700;4.880;2023-09-19T11:07:06;34.70;65.80
17092;DHT22;8661;45.700;4.880;2023-09-19T11:09:51;35.30;64.20
17092;DHT22;8661;45.700;4.880;2023-09-19T11:12:50;35.40;63.00
17092;DHT22;8661;45.700;4.880;2023-09-19T11:18:52;35.70;62.00
17092;DHT22;8661;45.700;4.880;2023-09-19T11:21:51;36.10;62.90
17092;DHT22;8661;45.700;4.880;2023-09-19T11:24:30;36.30;59.50
17092;DHT22;8661;45.700;4.880;2023-09-19T11:27:15;36.60;60.30
17092;DHT22;8661;45.700;4.880;2023-09-19T11:29:44;36.80;56.80
17092;DHT22;8661;45.700;4.880;2023-09-19T11:32:11;36.80;57.90
17092;DHT22;8661;45.700;4.880;2023-09-19T11:34:47;36.80;57.90
17092;DHT22;8661;45.700;4.880;2023-09-19T11:40:25;36.40;56.00
17092;DHT22;8661;45.700;4.880;2023-09-19T11:42:53;36.70;57.60
17092;DHT22;8661;45.700;4.880;2023-09-19T11:48:27;36.80;56.20
17092;DHT22;8661;45.700;4.880;2023-09-19T11:50:56;36.70;56.70
17092;DHT22;8661;45.700;4.880;2023-09-19T11:53:31;36.80;56.10
17092;DHT22;8661;45.700;4.880;2023-09-19T11:56:01;37.10;56.70
17092;DHT22;8661;45.700;4.880;2023-09-19T11:58:30;36.90;56.10
17092;DHT22;8661;45.700;4.880;2023-09-19T12:00:59;36.90;55.10
17092;DHT22;8661;45.700;4.880;2023-09-19T12:03:35;36.50;55.20
17092;DHT22;8661;45.700;4.880;2023-09-19T12:06:12;36.20;55.50
17092;DHT22;8661;45.700;4.880;2023-09-19T12:08:41;36.30;55.50
17092;DHT22;8661;45.700;4.880;2023-09-19T12:11:13;36.50;55.20
17092;DHT22;8661;45.700;4.880;2023-09-19T12:13:44;36.80;54.00
17092;DHT22;8661;45.700;4.880;2023-09-19T12:16:15;36.90;53.20
17092;DHT22;8661;45.700;4.880;2023-09-19T12:18:43;37.00;54.60
17092;DHT22;8661;45.700;4.880;2023-09-19T12:21:30;37.30;53.70
17092;DHT22;8661;45.700;4.880;2023-09-19T12:24:05;36.80;53.70
17092;DHT22;8661;45.700;4.880;2023-09-19T12:26:42;36.10;55.00
17092;DHT22;8661;45.700;4.880;2023-09-19T12:29:16;35.90;56.10
17092;DHT22;8661;45.700;4.880;2023-09-19T12:31:53;35.50;55.70
17092;DHT22;8661;45.700;4.880;2023-09-19T12:34:24;35.50;55.50
17092;DHT22;8661;45.700;4.880;2023-09-19T12:37:09;34.60;56.70
17092;DHT22;8661;45.700;4.880;2023-09-19T12:39:43;33.40;57.60
17092;DHT22;8661;45.700;4.880;2023-09-19T12:42:15;32.60;59.40
17092;DHT22;8661;45.700;4.880;2023-09-19T12:44:43;32.60;60.30
17092;DHT22;8661;45.700;4.880;2023-09-19T12:47:11;33.30;60.80
17092;DHT22;8661;45.700;4.880;2023-09-19T12:50:07;33.90;60.50
17092;DHT22;8661;45.700;4.880;2023-09-19T12:52:41;34.60;60.20
17092;DHT22;8661;45.700;4.880;2023-09-19T12:55:18;35.00;58.10
17092;DHT22;8661;45.700;4.880;2023-09-19T12:58:08;34.50;57.70
17092;DHT22;8661;45.700;4.880;2023-09-19T13:00:37;34.10;58.10
17092;DHT22;8661;45.700;4.880;2023-09-19T13:03:17;34.20;58.00
17092;DHT22;8661;45.700;4.880;2023-09-19T13:05:54;34.40;57.00
17092;DHT22;8661;45.700;4.880;2023-09-19T13:08:28;34.80;56.00
17092;DHT22;8661;45.700;4.880;2023-09-19T13:11:05;34.90;56.10
17092;DHT22;8661;45.700;4.880;2023-09-19T13:13:36;34.70;56.70
17092;DHT22;8661;45.700;4.880;2023-09-19T13:16:03;34.70;56.00
17092;DHT22;8661;45.700;4.880;2023-09-19T13:18:41;34.90;55.60
17092;DHT22;8661;45.700;4.880;2023-09-19T13:21:11;35.00;55.60
17092;DHT22;8661;45.700;4.880;2023-09-19T13:23:42;34.60;56.00
17092;DHT22;8661;45.700;4.880;2023-09-19T13:26:10;34.40;56.20
17092;DHT22;8661;45.700;4.880;2023-09-19T13:28:38;34.30;56.20
17092;DHT22;8661;45.700;4.880;2023-09-19T13:31:05;34.40;56.10
17092;DHT22;8661;45.700;4.880;2023-09-19T13:33:33;34.30;57.00
17092;DHT22;8661;45.700;4.880;2023-09-19T13:36:01;34.40;56.60
17092;DHT22;8661;45.700;4.880;2023-09-19T13:38:28;34.50;56.70
17092;DHT22;8661;45.700;4.880;2023-09-19T13:40:56;34.40;56.30
17092;DHT22;8661;45.700;4.880;2023-09-19T13:43:25;34.50;55.40
17092;DHT22;8661;45.700;4.880;2023-09-19T13:45:52;34.80;54.90
17092;DHT22;8661;45.700;4.880;2023-09-19T13:48:19;34.80;54.80
17092;DHT22;8661;45.700;4.880;2023-09-19T13:50:48;35.00;55.20
17092;DHT22;8661;45.700;4.880;2023-09-19T13:53:15;35.10;55.40
17092;DHT22;8661;45.700;4.880;2023-09-19T13:55:42;35.10;55.50
17092;DHT22;8661;45.700;4.880;2023-09-19T13:58:11;34.60;55.80
17092;DHT22;8661;45.700;4.880;2023-09-19T14:00:38;33.70;56.70
17092;DHT22;8661;45.700;4.880;2023-09-19T14:03:05;33.60;57.30
17092;DHT22;8661;45.700;4.880;2023-09-19T14:05:32;33.60;56.80
17092;DHT22;8661;45.700;4.880;2023-09-19T14:07:59;33.70;56.50
17092;DHT22;8661;45.700;4.880;2023-09-19T14:10:26;33.90;57.30
17092;DHT22;8661;45.700;4.880;2023-09-19T14:12:55;34.10;57.50
17092;DHT22;8661;45.700;4.880;2023-09-19T14:15:24;34.40;57.10
17092;DHT22;8661;45.700;4.880;2023-09-19T14:17:55;34.50;56.80
17092;DHT22;8661;45.700;4.880;2023-09-19T14:20:22;34.30;56.20
17092;DHT22;8661;45.700;4.880;2023-09-19T14:22:49;34.40;56.30
17092;DHT22;8661;45.700;4.880;2023-09-19T14:25:16;34.20;56.10
17092;DHT22;8661;45.700;4.880;2023-09-19T14:27:43;34.00;56.80
17092;DHT22;8661;45.700;4.880;2023-09-19T14:30:11;34.10;56.20
17092;DHT22;8661;45.700;4.880;2023-09-19T14:32:39;34.30;56.60
17092;DHT22;8661;45.700;4.880;2023-09-19T14:35:07;34.30;56.40
17092;DHT22;8661;45.700;4.880;2023-09-19T14:37:35;34.00;56.90
17092;DHT22;8661;45.700;4.880;2023-09-19T14:40:04;34.10;56.70
17092;DHT22;8661;45.700;4.880;2023-09-19T14:42:35;34.00;55.80
17092;DHT22;8661;45.700;4.880;2023-09-19T14:45:04;33.80;56.10
17092;DHT22;8661;45.700;4.880;2023-09-19T14:47:32;33.70;56.60
17092;DHT22;8661;45.700;4.880;2023-09-19T14:50:02;33.50;56.50
17092;DHT22;8661;45.700;4.880;2023-09-19T14:52:32;33.00;56.50
17092;DHT22;8661;45.700;4.880;2023-09-19T14:54:59;33.00;57.00
17092;DHT22;8661;45.700;4.880;2023-09-19T14:57:26;32.90;57.20
17092;DHT22;8661;45.700;4.880;2023-09-19T14:59:53;33.10;57.60
17092;DHT22;8661;45.700;4.880;2023-09-19T15:02:20;33.20;57.30
17092;DHT22;8661;45.700;4.880;2023-09-19T15:04:47;33.20;56.60
17092;DHT22;8661;45.700;4.880;2023-09-19T15:07:15;32.90;56.90
17092;DHT22;8661;45.700;4.880;2023-09-19T15:09:44;33.00;56.70
17092;DHT22;8661;45.700;4.880;2023-09-19T15:12:12;32.80;57.60
17092;DHT22;8661;45.700;4.880;2023-09-19T15:14:40;33.10;57.10
17092;DHT22;8661;45.700;4.880;2023-09-19T15:17:08;33.80;55.60
17092;DHT22;8661;45.700;4.880;2023-09-19T15:19:35;34.60;54.90
17092;DHT22;8661;45.700;4.880;2023-09-19T15:22:04;34.90;54.00
17092;DHT22;8661;45.700;4.880;2023-09-19T15:24:32;35.10;53.50
17092;DHT22;8661;45.700;4.880;2023-09-19T15:27:00;35.20;53.70
17092;DHT22;8661;45.700;4.880;2023-09-19T15:29:27;33.90;54.50
17092;DHT22;8661;45.700;4.880;2023-09-19T15:31:55;32.70;55.70
17092;DHT22;8661;45.700;4.880;2023-09-19T15:34:24;31.90;56.80
17092;DHT22;8661;45.700;4.880;2023-09-19T15:36:51;31.30;57.60
17092;DHT22;8661;45.700;4.880;2023-09-19T15:39:18;31.00;58.50
17092;DHT22;8661;45.700;4.880;2023-09-19T15:41:49;30.70;58.90
17092;DHT22;8661;45.700;4.880;2023-09-19T15:44:18;30.40;59.20
17092;DHT22;8661;45.700;4.880;2023-09-19T15:46:45;29.90;59.70
17092;DHT22;8661;45.700;4.880;2023-09-19T15:49:13;29.50;61.10
17092;DHT22;8661;45.700;4.880;2023-09-19T15:51:39;29.10;62.00
17092;DHT22;8661;45.700;4.880;2023-09-19T15:54:10;28.80;62.50
17092;DHT22;8661;45.700;4.880;2023-09-19T15:56:39;28.60;63.10
17092;DHT22;8661;45.700;4.880;2023-09-19T15:59:08;28.30;63.40
17092;DHT22;8661;45.700;4.880;2023-09-19T16:01:38;28.20;63.90
17092;DHT22;8661;45.700;4.880;2023-09-19T16:04:06;28.10;64.50
17092;DHT22;8661;45.700;4.880;2023-09-19T16:06:36;28.00;65.00
17092;DHT22;8661;45.700;4.880;2023-09-19T16:09:04;27.70;65.30
17092;DHT22;8661;45.700;4.880;2023-09-19T16:11:33;27.40;66.00